createdAt,value
2018-04-13T00:01:34.244Z,56.37
2018-04-13T00:04:01.811Z,44.43
2018-04-13T00:06:29.756Z,48.93
2018-04-13T00:08:57.370Z,40.90
2018-04-13T00:11:25.217Z,42.20
2018-04-13T00:13:52.819Z,37.83
2018-04-13T00:16:20.341Z,36.97
2018-04-13T00:18:47.895Z,40.97
2018-04-13T00:21:15.445Z,46.23
2018-04-13T00:23:43.122Z,44.50
2018-04-13T00:26:10.685Z,51.20
2018-04-13T00:28:38.284Z,47.90
2018-04-13T00:31:05.819Z,69.27
2018-04-13T00:33:33.419Z,56.27
2018-04-13T00:36:00.979Z,49.53
2018-04-13T00:38:28.557Z,53.87
2018-04-13T00:40:56.107Z,51.67
2018-04-13T00:43:23.717Z,53.23
2018-04-13T00:45:51.253Z,46.80
2018-04-13T00:48:18.831Z,47.53
2018-04-13T00:50:46.373Z,47.80
2018-04-13T00:53:25.696Z,42.43
2018-04-13T00:55:53.274Z,52.00
2018-04-13T00:58:21.125Z,51.60
2018-04-13T01:00:48.717Z,47.57
2018-04-13T01:03:16.272Z,50.60
2018-04-13T01:05:43.816Z,46.30
2018-04-13T01:08:11.363Z,45.27
2018-04-13T01:10:38.928Z,46.07
2018-04-13T01:13:06.485Z,40.40
2018-04-13T01:15:34.073Z,45.30
2018-04-13T01:18:01.619Z,44.93
2018-04-13T01:20:29.211Z,48.00
2018-04-13T01:22:56.810Z,45.83
2018-04-13T01:25:24.366Z,47.40
2018-04-13T01:27:51.902Z,37.87
2018-04-13T01:30:19.462Z,29.40
2018-04-13T01:32:47.005Z,30.33
2018-04-13T01:35:14.590Z,33.27
2018-04-13T01:37:42.145Z,28.37
2018-04-13T01:40:09.754Z,31.23
2018-04-13T01:42:37.301Z,32.97
2018-04-13T01:45:04.866Z,31.23
2018-04-13T01:47:32.414Z,33.33
2018-04-13T01:50:00.010Z,32.73
2018-04-13T01:52:27.571Z,36.00
2018-04-13T01:54:55.308Z,34.70
2018-04-13T01:57:22.852Z,34.90
2018-04-13T01:59:50.476Z,36.17
2018-04-13T02:02:18.040Z,35.33
2018-04-13T02:04:46.288Z,33.80
2018-04-13T02:07:13.842Z,34.77
2018-04-13T02:09:41.966Z,34.70
2018-04-13T02:12:09.791Z,33.53
2018-04-13T02:14:37.851Z,36.67
2018-04-13T02:17:05.414Z,36.87
2018-04-13T02:19:32.979Z,35.53
2018-04-13T02:22:00.523Z,40.30
2018-04-13T02:24:28.100Z,39.63
2018-04-13T02:26:55.659Z,38.17
2018-04-13T02:29:23.247Z,41.47
2018-04-13T02:31:50.792Z,40.63
2018-04-13T02:34:18.445Z,43.13
2018-04-13T02:36:46.041Z,43.37
2018-04-13T02:39:13.593Z,39.93
2018-04-13T02:41:41.209Z,40.83
2018-04-13T02:44:25.860Z,38.67
2018-04-13T02:46:53.491Z,33.57
2018-04-13T02:49:21.069Z,38.57
2018-04-13T02:51:48.615Z,38.53
2018-04-13T02:54:16.159Z,40.80
2018-04-13T02:56:43.704Z,35.93
2018-04-13T02:59:11.263Z,35.97
2018-04-13T03:01:38.841Z,35.90
2018-04-13T03:04:06.423Z,35.60
2018-04-13T03:06:33.976Z,34.67
2018-04-13T03:09:01.576Z,36.27
2018-04-13T03:11:29.120Z,40.43
2018-04-13T03:13:56.732Z,36.97
2018-04-13T03:16:24.291Z,36.60
2018-04-13T03:18:51.969Z,39.90
2018-04-13T03:21:19.515Z,36.97
2018-04-13T03:23:47.176Z,38.53
2018-04-13T03:26:14.717Z,39.53
2018-04-13T03:28:42.295Z,34.40
2018-04-13T03:31:09.832Z,35.23
2018-04-13T03:33:37.420Z,36.47
2018-04-13T03:36:04.965Z,36.00
2018-04-13T03:38:32.525Z,35.50
2018-04-13T03:41:20.182Z,33.37
2018-04-13T03:43:47.769Z,34.27
2018-04-13T03:46:15.316Z,32.50
2018-04-13T03:48:43.526Z,36.00
2018-04-13T03:51:11.045Z,31.23
2018-04-13T03:53:39.152Z,34.53
2018-04-13T03:56:06.702Z,35.90
2018-04-13T03:58:34.606Z,31.17
2018-04-13T04:01:02.280Z,30.37
2018-04-13T04:03:30.039Z,35.23
2018-04-13T04:05:57.567Z,33.87
2018-04-13T04:08:25.297Z,30.90
2018-04-13T04:10:53.003Z,32.40
2018-04-13T04:13:20.841Z,33.17
2018-04-13T04:15:48.742Z,34.53
2018-04-13T04:18:16.272Z,39.17
2018-04-13T04:20:55.677Z,42.53
2018-04-13T04:23:35.726Z,47.90
2018-04-13T04:26:21.819Z,54.57
2018-04-13T04:28:49.859Z,58.07
2018-04-13T04:31:17.421Z,62.63
2018-04-13T04:33:45.425Z,61.13
2018-04-13T04:36:13.012Z,80.63
2018-04-13T04:38:40.586Z,89.53
2018-04-13T04:41:08.240Z,89.63
2018-04-13T04:43:35.794Z,102.93
2018-04-13T04:46:03.491Z,78.60
2018-04-13T04:48:31.033Z,65.37
2018-04-13T04:50:59.130Z,61.07
2018-04-13T04:53:26.686Z,65.73
2018-04-13T04:55:54.254Z,64.83
2018-04-13T04:58:21.884Z,64.43
2018-04-13T05:00:49.890Z,63.80
2018-04-13T05:03:17.840Z,73.93
2018-04-13T05:05:45.841Z,75.47
2018-04-13T05:08:13.413Z,95.27
2018-04-13T05:10:41.182Z,88.60
2018-04-13T05:13:08.772Z,96.97
2018-04-13T05:15:36.300Z,104.13
2018-04-13T05:18:03.868Z,97.77
2018-04-13T05:20:31.425Z,99.23
2018-04-13T05:22:59.045Z,89.00
2018-04-13T05:25:26.591Z,102.40
2018-04-13T05:27:54.171Z,107.40
2018-04-13T05:30:21.742Z,101.77
2018-04-13T05:32:49.317Z,105.13
2018-04-13T05:35:17.005Z,102.70
2018-04-13T05:37:44.566Z,98.53
2018-04-13T05:40:12.177Z,107.93
2018-04-13T05:42:39.747Z,111.10
2018-04-13T05:45:07.666Z,98.50
2018-04-13T05:47:37.740Z,92.37
2018-04-13T05:50:05.351Z,81.03
2018-04-13T05:52:32.882Z,87.47
2018-04-13T05:55:00.487Z,101.70
2018-04-13T05:57:28.166Z,98.73
2018-04-13T05:59:56.421Z,94.13
2018-04-13T06:02:23.957Z,97.60
2018-04-13T06:04:52.420Z,83.57
2018-04-13T06:07:19.992Z,91.83
2018-04-13T06:09:47.833Z,86.03
2018-04-13T06:12:15.428Z,93.03
2018-04-13T06:14:42.995Z,98.47
2018-04-13T06:17:10.655Z,101.80
2018-04-13T06:19:38.209Z,103.20
2018-04-13T06:22:05.807Z,106.60
2018-04-13T06:24:33.377Z,98.97
2018-04-13T06:27:01.028Z,109.53
2018-04-13T06:29:28.606Z,114.43
2018-04-13T06:31:56.247Z,106.77
2018-04-13T06:34:23.830Z,102.60
2018-04-13T06:36:55.045Z,120.80
2018-04-13T06:39:19.449Z,124.07
2018-04-13T06:41:47.022Z,124.77
2018-04-13T06:44:14.590Z,121.30
2018-04-13T06:46:42.130Z,134.63
2018-04-13T06:49:09.669Z,131.73
2018-04-13T06:51:37.234Z,128.83
2018-04-13T06:54:04.776Z,133.03
2018-04-13T06:56:33.209Z,121.53
2018-04-13T06:59:00.775Z,124.10
2018-04-13T07:01:28.785Z,136.17
2018-04-13T07:03:56.341Z,117.57
2018-04-13T07:06:23.907Z,128.83
2018-04-13T07:08:51.450Z,135.97
2018-04-13T07:11:18.989Z,140.57
2018-04-13T07:13:46.566Z,140.33
2018-04-13T07:16:14.094Z,129.83
2018-04-13T07:18:41.678Z,137.63
2018-04-13T07:21:09.287Z,137.67
2018-04-13T07:23:36.952Z,137.37
2018-04-13T07:26:04.514Z,144.50
2018-04-13T07:28:32.074Z,131.53
2018-04-13T07:30:59.638Z,129.03
2018-04-13T07:33:27.259Z,129.47
2018-04-13T07:35:55.225Z,126.23
2018-04-13T07:38:22.416Z,129.27
2018-04-13T07:40:49.954Z,130.77
2018-04-13T07:43:17.519Z,130.83
2018-04-13T07:45:45.345Z,137.63
2018-04-13T07:48:13.124Z,132.13
2018-04-13T07:50:40.690Z,133.90
2018-04-13T07:53:08.692Z,124.40
2018-04-13T07:55:36.270Z,125.30
2018-04-13T07:58:04.255Z,132.50
2018-04-13T08:00:31.783Z,119.10
2018-04-13T08:02:59.719Z,125.63
2018-04-13T08:05:27.316Z,134.47
2018-04-13T08:07:54.872Z,125.23
2018-04-13T08:10:22.429Z,120.53
2018-04-13T08:12:49.984Z,124.03
2018-04-13T08:15:17.522Z,117.03
2018-04-13T08:17:45.077Z,117.50
2018-04-13T08:20:12.629Z,111.30
2018-04-13T08:22:40.180Z,128.03
2018-04-13T08:25:07.737Z,114.73
2018-04-13T08:27:35.290Z,111.87
2018-04-13T08:30:02.874Z,110.33
2018-04-13T08:32:30.433Z,111.10
2018-04-13T08:34:57.983Z,109.37
2018-04-13T08:37:25.535Z,103.03
2018-04-13T08:39:53.141Z,113.90
2018-04-13T08:42:20.709Z,105.87
2018-04-13T08:44:48.297Z,116.60
2018-04-13T08:47:15.897Z,107.23
2018-04-13T08:49:43.482Z,111.47
2018-04-13T08:52:11.014Z,106.77
2018-04-13T08:54:38.604Z,109.37
2018-04-13T08:57:06.192Z,113.30
2018-04-13T08:59:33.774Z,105.53
2018-04-13T09:02:01.302Z,103.47
2018-04-13T09:04:28.872Z,116.13
2018-04-13T09:06:56.424Z,101.57
2018-04-13T09:09:23.991Z,103.80
2018-04-13T09:11:51.537Z,92.70
2018-04-13T09:14:19.124Z,89.77
2018-04-13T09:16:46.758Z,78.17
2018-04-13T09:19:14.314Z,74.33
2018-04-13T09:21:41.881Z,68.27
2018-04-13T09:24:09.451Z,65.30
2018-04-13T09:26:36.979Z,58.93
2018-04-13T09:29:04.547Z,62.33
2018-04-13T09:31:32.098Z,51.93
2018-04-13T09:33:59.687Z,50.53
2018-04-13T09:36:27.207Z,46.70
2018-04-13T09:38:54.850Z,38.70
2018-04-13T09:41:22.391Z,32.93
2018-04-13T09:43:49.955Z,27.17
2018-04-13T09:46:17.499Z,19.60
2018-04-13T09:48:45.054Z,19.67
2018-04-13T09:51:12.601Z,17.73
2018-04-13T09:53:40.135Z,19.50
2018-04-13T09:56:07.670Z,21.07
2018-04-13T09:58:35.229Z,19.47
2018-04-13T10:01:02.773Z,22.27
2018-04-13T10:03:36.139Z,20.93
2018-04-13T10:06:03.696Z,22.03
2018-04-13T10:08:31.246Z,22.07
2018-04-13T10:10:58.771Z,21.77
2018-04-13T10:13:26.323Z,21.60
2018-04-13T10:15:53.930Z,19.27
2018-04-13T10:18:21.489Z,23.13
2018-04-13T10:20:49.053Z,22.60
2018-04-13T10:23:16.612Z,21.80
2018-04-13T10:25:44.166Z,26.50
2018-04-13T10:28:11.725Z,22.70
2018-04-13T10:30:39.281Z,25.20
2018-04-13T10:33:07.231Z,24.93
2018-04-13T10:35:34.785Z,27.40
2018-04-13T10:38:02.735Z,25.47
2018-04-13T10:40:30.308Z,29.70
2018-04-13T10:42:58.220Z,24.90
2018-04-13T10:45:25.777Z,18.77
2018-04-13T10:47:53.349Z,20.60
2018-04-13T10:50:20.929Z,15.33
2018-04-13T10:52:48.471Z,16.07
2018-04-13T10:55:16.044Z,14.60
2018-04-13T10:57:43.618Z,15.20
2018-04-13T11:00:11.181Z,17.70
2018-04-13T11:02:38.744Z,15.40
2018-04-13T11:05:06.314Z,15.87
2018-04-13T11:07:33.846Z,16.57
2018-04-13T11:10:01.396Z,16.83
2018-04-13T11:12:28.933Z,16.93
2018-04-13T11:14:56.536Z,17.70
2018-04-13T11:17:24.103Z,19.33
2018-04-13T11:19:51.834Z,15.77
2018-04-13T11:22:19.393Z,16.57
2018-04-13T11:24:46.946Z,16.97
2018-04-13T11:27:14.507Z,15.13
2018-04-13T11:29:42.082Z,17.00
2018-04-13T11:32:09.649Z,15.73
2018-04-13T11:34:37.810Z,16.83
2018-04-13T11:37:05.363Z,16.47
2018-04-13T11:39:32.900Z,17.60
2018-04-13T11:42:00.436Z,13.43
2018-04-13T11:44:28.496Z,16.30
2018-04-13T11:46:56.053Z,15.60
2018-04-13T11:49:24.065Z,15.90
2018-04-13T11:51:51.680Z,16.20
2018-04-13T11:54:19.419Z,14.83
2018-04-13T11:56:46.998Z,15.57
2018-04-13T11:59:14.567Z,18.10
2018-04-13T12:01:42.110Z,16.50
2018-04-13T12:04:09.644Z,17.17
2018-04-13T12:06:37.212Z,16.60
2018-04-13T12:09:04.774Z,17.00
2018-04-13T12:11:32.355Z,17.10
2018-04-13T12:13:59.948Z,14.57
2018-04-13T12:16:27.511Z,15.20
2018-04-13T12:18:55.093Z,12.73
2018-04-13T12:21:22.666Z,12.83
2018-04-13T12:23:50.752Z,15.70
2018-04-13T12:26:18.636Z,13.50
2018-04-13T12:28:46.219Z,12.70
2018-04-13T12:31:13.795Z,12.77
2018-04-13T12:33:41.320Z,11.60
2018-04-13T12:36:08.962Z,12.87
2018-04-13T12:38:36.516Z,17.17
2018-04-13T12:41:04.538Z,9.20
2018-04-13T12:43:32.128Z,9.33
2018-04-13T12:45:59.983Z,6.80
2018-04-13T12:48:27.593Z,10.20
2018-04-13T12:50:55.432Z,7.87
2018-04-13T12:53:22.992Z,7.33
2018-04-13T12:55:50.550Z,7.17
2018-04-13T12:58:18.087Z,8.73
2018-04-13T13:00:45.680Z,10.97
2018-04-13T13:03:13.209Z,8.17
2018-04-13T13:05:40.747Z,8.43
2018-04-13T13:08:08.293Z,8.50
2018-04-13T13:10:35.819Z,6.63
2018-04-13T13:13:03.360Z,8.47
2018-04-13T13:15:30.911Z,5.30
2018-04-13T13:17:58.466Z,5.57
2018-04-13T13:20:26.011Z,7.77
2018-04-13T13:22:53.560Z,5.57
2018-04-13T13:25:21.223Z,6.50
2018-04-13T13:27:48.905Z,4.97
2018-04-13T13:30:16.446Z,6.87
2018-04-13T13:32:44.087Z,5.93
2018-04-13T13:35:11.657Z,4.63
2018-04-13T13:37:39.248Z,5.13
2018-04-13T13:40:06.781Z,6.13
2018-04-13T13:42:34.339Z,5.20
2018-04-13T13:45:01.876Z,8.17
2018-04-13T13:47:29.424Z,6.47
2018-04-13T13:49:56.970Z,7.07
2018-04-13T13:52:24.529Z,7.37
2018-04-13T13:54:52.083Z,6.77
2018-04-13T13:57:19.639Z,6.73
2018-04-13T13:59:47.182Z,9.20
2018-04-13T14:02:14.771Z,7.50
2018-04-13T14:04:42.319Z,7.97
2018-04-13T14:07:09.897Z,7.67
2018-04-13T14:09:37.417Z,7.37
2018-04-13T14:12:04.944Z,8.97
2018-04-13T14:14:32.541Z,7.87
2018-04-13T14:17:00.107Z,6.40
2018-04-13T14:19:27.642Z,6.10
2018-04-13T14:21:55.193Z,6.77
2018-04-13T14:24:22.733Z,6.83
2018-04-13T14:26:50.291Z,6.57
2018-04-13T14:29:17.837Z,6.80
2018-04-13T14:31:45.349Z,9.57
2018-04-13T14:34:12.904Z,8.77
2018-04-13T14:36:40.482Z,6.60
2018-04-13T14:39:08.066Z,7.33
2018-04-13T14:41:35.608Z,8.67
2018-04-13T14:44:03.202Z,7.70
2018-04-13T14:46:30.758Z,9.60
2018-04-13T14:48:58.319Z,10.07
2018-04-13T14:51:25.870Z,9.07
2018-04-13T14:53:53.438Z,9.33
2018-04-13T14:56:20.994Z,9.50
2018-04-13T14:58:48.554Z,8.97
2018-04-13T15:01:16.112Z,8.53
2018-04-13T15:03:43.675Z,10.10
2018-04-13T15:06:11.243Z,9.63
2018-04-13T15:08:38.793Z,10.20
2018-04-13T15:11:06.374Z,10.17
2018-04-13T15:13:33.891Z,11.37
2018-04-13T15:16:01.467Z,10.70
2018-04-13T15:18:29.207Z,11.37
2018-04-13T15:20:56.783Z,12.13
2018-04-13T15:23:24.334Z,13.17
2018-04-13T15:25:51.909Z,12.47
2018-04-13T15:28:19.476Z,16.67
2018-04-13T15:30:47.052Z,19.47
2018-04-13T15:33:16.250Z,14.93
2018-04-13T15:35:44.475Z,15.87
2018-04-13T15:38:13.763Z,16.90
2018-04-13T15:40:46.275Z,16.70
2018-04-13T15:43:14.529Z,18.60
2018-04-13T15:45:42.075Z,17.03
2018-04-13T15:48:10.286Z,17.67
2018-04-13T15:50:37.889Z,19.40
2018-04-13T15:53:05.434Z,21.07
2018-04-13T15:55:33.070Z,19.53
2018-04-13T15:58:00.636Z,20.43
2018-04-13T16:00:28.388Z,20.10
2018-04-13T16:02:55.945Z,20.87
2018-04-13T16:05:24.252Z,22.70
2018-04-13T16:07:51.814Z,23.20
2018-04-13T16:10:19.874Z,22.87
2018-04-13T16:12:47.407Z,21.47
2018-04-13T16:15:15.691Z,22.40
2018-04-13T16:17:43.312Z,20.87
2018-04-13T16:20:10.877Z,23.03
2018-04-13T16:22:38.531Z,21.83
2018-04-13T16:25:06.066Z,22.00
2018-04-13T16:27:34.437Z,24.60
2018-04-13T16:30:01.969Z,23.40
2018-04-13T16:32:30.117Z,24.70
2018-04-13T16:34:57.660Z,22.83
2018-04-13T16:37:27.954Z,21.80
2018-04-13T16:39:55.923Z,24.20
2018-04-13T16:42:23.521Z,22.70
2018-04-13T16:44:51.137Z,22.50
2018-04-13T16:47:18.844Z,22.53
2018-04-13T16:49:46.400Z,24.53
2018-04-13T16:52:14.658Z,23.43
2018-04-13T16:54:42.216Z,25.87
2018-04-13T16:57:10.388Z,24.13
2018-04-13T16:59:37.940Z,28.43
2018-04-13T17:02:06.018Z,23.67
2018-04-13T17:04:33.626Z,26.57
2018-04-13T17:07:01.227Z,24.90
2018-04-13T17:09:28.792Z,24.30
2018-04-13T17:11:56.358Z,24.00
2018-04-13T17:14:24.072Z,24.60
2018-04-13T17:16:51.630Z,24.33
2018-04-13T17:19:19.915Z,24.53
2018-04-13T17:21:47.465Z,27.23
2018-04-13T17:24:15.433Z,25.53
2018-04-13T17:26:43.009Z,26.47
2018-04-13T17:29:11.538Z,25.70
2018-04-13T17:31:39.974Z,24.63
2018-04-13T17:34:08.448Z,26.03
2018-04-13T17:36:36.208Z,24.70
2018-04-13T17:39:03.812Z,26.70
2018-04-13T17:41:31.361Z,26.47
2018-04-13T17:43:59.082Z,26.30
2018-04-13T17:46:26.715Z,26.03
2018-04-13T17:48:54.887Z,26.40
2018-04-13T17:51:22.443Z,26.57
2018-04-13T17:53:50.453Z,27.17
2018-04-13T17:56:18.003Z,26.00
2018-04-13T17:58:45.874Z,27.67
2018-04-13T18:01:13.435Z,26.63
2018-04-13T18:03:41.381Z,28.97
2018-04-13T18:06:09.028Z,25.93
2018-04-13T18:08:36.571Z,27.57
2018-04-13T18:11:04.205Z,28.53
2018-04-13T18:13:31.836Z,29.27
2018-04-13T18:15:59.409Z,30.50
2018-04-13T18:18:27.978Z,30.47
2018-04-13T18:20:56.087Z,29.57
2018-04-13T18:23:23.846Z,28.93
2018-04-13T18:25:51.902Z,30.33
2018-04-13T18:28:19.474Z,31.10
2018-04-13T18:30:47.025Z,28.20
2018-04-13T18:33:14.648Z,29.40
2018-04-13T18:35:42.217Z,28.90
2018-04-13T18:38:09.794Z,28.77
2018-04-13T18:40:37.337Z,27.37
2018-04-13T18:43:05.013Z,30.83
2018-04-13T18:45:32.593Z,30.77
2018-04-13T18:48:00.160Z,29.90
2018-04-13T18:50:27.715Z,30.33
2018-04-13T18:52:55.393Z,29.40
2018-04-13T18:55:22.954Z,31.83
2018-04-13T18:57:50.506Z,26.43
2018-04-13T19:00:18.054Z,28.77
2018-04-13T19:02:45.743Z,28.67
2018-04-13T19:05:13.347Z,27.20
2018-04-13T19:07:41.472Z,33.70
2018-04-13T19:10:09.022Z,33.50
2018-04-13T19:12:36.616Z,35.07
2018-04-13T19:15:04.150Z,32.90
2018-04-13T19:17:31.803Z,33.50
2018-04-13T19:19:59.363Z,33.67
2018-04-13T19:22:26.995Z,33.03
2018-04-13T19:24:55.055Z,31.80
2018-04-13T19:27:22.788Z,30.17
2018-04-13T19:29:50.797Z,33.53
2018-04-13T19:32:18.408Z,27.70
2018-04-13T19:34:45.960Z,30.63
2018-04-13T19:37:13.579Z,33.90
2018-04-13T19:39:41.122Z,32.43
2018-04-13T19:42:09.505Z,28.17
2018-04-13T19:44:37.056Z,29.27
2018-04-13T19:47:05.024Z,27.47
2018-04-13T19:49:32.624Z,27.77
2018-04-13T19:52:00.848Z,29.27
2018-04-13T19:54:28.464Z,36.90
2018-04-13T19:56:56.073Z,29.77
2018-04-13T19:59:24.463Z,27.27
2018-04-13T20:01:52.026Z,27.83
2018-04-13T20:04:20.140Z,32.47
2018-04-13T20:06:47.770Z,30.17
2018-04-13T20:09:15.872Z,34.80
2018-04-13T20:11:43.464Z,30.87
2018-04-13T20:14:11.060Z,32.03
2018-04-13T20:16:38.785Z,28.23
2018-04-13T20:19:06.313Z,28.47
2018-04-13T20:21:33.901Z,26.43
2018-04-13T20:24:01.460Z,28.80
2018-04-13T20:26:29.800Z,32.07
2018-04-13T20:28:57.372Z,27.03
2018-04-13T20:31:25.397Z,32.67
2018-04-13T20:33:52.949Z,27.73
2018-04-13T20:36:21.005Z,29.67
2018-04-13T20:38:48.621Z,27.57
2018-04-13T20:41:16.408Z,32.03
2018-04-13T20:43:43.989Z,30.37
2018-04-13T20:46:11.651Z,31.20
2018-04-13T20:48:39.335Z,29.23
2018-04-13T20:51:06.869Z,29.40
2018-04-13T20:53:34.463Z,31.17
2018-04-13T20:56:01.998Z,28.70
2018-04-13T20:58:29.549Z,31.30
2018-04-13T21:00:57.105Z,30.87
2018-04-13T21:03:24.690Z,31.50
2018-04-13T21:05:52.239Z,36.97
2018-04-13T21:08:19.805Z,33.93
2018-04-13T21:10:47.410Z,31.80
2018-04-13T21:13:15.050Z,32.63
2018-04-13T21:15:42.605Z,33.90
2018-04-13T21:18:10.209Z,31.40
2018-04-13T21:20:37.768Z,38.33
2018-04-13T21:23:05.364Z,33.40
2018-04-13T21:25:32.918Z,35.03
2018-04-13T21:28:00.516Z,33.63
2018-04-13T21:30:28.138Z,33.70
2018-04-13T21:32:56.417Z,32.60
2018-04-13T21:35:24.008Z,35.67
2018-04-13T21:37:52.117Z,36.73
2018-04-13T21:40:19.676Z,35.90
2018-04-13T21:42:47.549Z,32.87
2018-04-13T21:45:15.107Z,36.40
2018-04-13T21:47:43.080Z,33.33
2018-04-13T21:50:10.615Z,34.27
2018-04-13T21:52:38.159Z,38.23
2018-04-13T21:55:05.829Z,35.93
2018-04-13T21:57:33.354Z,36.83
2018-04-13T22:00:00.930Z,36.60
2018-04-13T22:02:28.505Z,33.83
2018-04-13T22:04:56.082Z,35.00
2018-04-13T22:07:23.622Z,37.77
2018-04-13T22:09:51.198Z,36.87
2018-04-13T22:12:30.599Z,33.77
2018-04-13T22:14:58.801Z,46.30
2018-04-13T22:17:26.351Z,41.03
2018-04-13T22:19:53.905Z,36.37
2018-04-13T22:22:21.469Z,39.37
2018-04-13T22:24:49.033Z,41.60
2018-04-13T22:27:16.593Z,43.07
2018-04-13T22:29:44.141Z,37.73
2018-04-13T22:32:11.670Z,41.53
2018-04-13T22:34:39.228Z,44.33
2018-04-13T22:37:06.812Z,39.37
2018-04-13T22:39:34.366Z,43.13
2018-04-13T22:42:01.910Z,40.73
2018-04-13T22:44:29.792Z,41.33
2018-04-13T22:46:57.347Z,47.73
2018-04-13T22:49:24.888Z,46.80
2018-04-13T22:51:52.493Z,46.27
2018-04-13T22:54:20.044Z,45.97
2018-04-13T22:56:47.632Z,44.60
2018-04-13T22:59:15.162Z,46.90
2018-04-13T23:01:42.759Z,50.67
2018-04-13T23:04:10.366Z,45.50
2018-04-13T23:06:37.939Z,46.47
2018-04-13T23:09:05.481Z,48.07
2018-04-13T23:11:33.057Z,52.47
2018-04-13T23:14:00.599Z,43.17
2018-04-13T23:16:28.217Z,44.83
2018-04-13T23:18:55.766Z,42.80
2018-04-13T23:21:23.895Z,47.23
2018-04-13T23:23:51.440Z,44.77
2018-04-13T23:26:19.028Z,46.10
2018-04-13T23:28:46.590Z,48.80
2018-04-13T23:31:14.147Z,46.97
2018-04-13T23:33:41.687Z,47.10
2018-04-13T23:36:09.262Z,49.00
2018-04-13T23:38:36.827Z,50.07
2018-04-13T23:41:04.418Z,48.37
2018-04-13T23:43:31.973Z,49.17
2018-04-13T23:45:59.610Z,50.23
2018-04-13T23:48:27.215Z,50.67
2018-04-13T23:50:55.272Z,46.73
2018-04-13T23:53:22.829Z,50.23
2018-04-13T23:55:50.761Z,49.17
2018-04-13T23:58:18.307Z,48.90
